Terminal Aerodrome Forecast
Issued by NWS Jacksonville, FL

Home | Current Version | Previous Version | Text Only | Print | Product List | Glossary On
Versions: 1 2 3 4 5 6 7 8 9 10 11 12 13 14 15 16 17 18 19 20 21
251
FTUS42 KJAX 071721
TAFGNV
TAF
KGNV 071721Z 0718/0818 31013G23KT P6SM SCT035
     FM072300 29008KT P6SM SKC
     FM080200 27004KT P6SM SKC
     FM081300 26006KT P6SM SCT030 SCT120
     FM081600 25012G18KT P6SM SCT040 BKN100=

USA.gov is the U.S. government's official web portal to all federal, state and local government web resources and services.